Time;durP1;ratioP1;P1;durP2;ratioP2;P2;SDS_P1;SDS_P2;PMS_P1;PMS_P2;Temp;Humidity;BMP_temperature;BMP_pressure;BME280_temperature;BME280_humidity;BME280_pressure;Samples;Min_cycle;Max_cycle;Signal;HPM_P1;HPM_P2
2022/08/30 00:01:05;;;;;;;2.95;1.80;;;20.90;67.40;;;;;;5050969;28;20189;-58
2022/08/30 00:03:39;;;;;;;4.03;1.58;;;20.90;67.20;;;;;;5051444;28;20268;-58
2022/08/30 00:06:06;;;;;;;2.90;1.83;;;20.80;67.60;;;;;;5050921;28;20189;-58
2022/08/30 00:08:33;;;;;;;2.47;1.65;;;20.80;67.60;;;;;;5051426;28;20541;-57
2022/08/30 00:11:00;;;;;;;2.08;1.65;;;20.80;67.80;;;;;;5051157;28;20238;-58
2022/08/30 00:13:26;;;;;;;5.95;1.90;;;20.80;67.00;;;;;;5051259;28;20181;-58
2022/08/30 00:15:52;;;;;;;2.22;2.03;;;20.80;68.20;;;;;;5050694;28;20189;-57
2022/08/30 00:18:19;;;;;;;3.55;1.90;;;20.80;67.20;;;;;;5051163;28;20680;-57
2022/08/30 00:20:46;;;;;;;2.67;1.83;;;20.80;68.20;;;;;;5050839;28;20661;-58
2022/08/30 00:23:11;;;;;;;3.38;1.73;;;20.80;67.70;;;;;;5051275;28;20641;-57
2022/08/30 00:25:37;;;;;;;3.20;1.67;;;20.80;68.00;;;;;;5050663;28;20228;-58
2022/08/30 00:28:03;;;;;;;2.53;1.75;;;20.80;68.00;;;;;;5050893;28;20209;-57
2022/08/30 00:30:29;;;;;;;3.80;1.85;;;20.70;67.90;;;;;;5050691;28;20177;-57
2022/08/30 00:32:55;;;;;;;4.93;1.58;;;20.70;68.20;;;;;;5054172;28;20232;-58
2022/08/30 00:35:22;;;;;;;2.67;1.67;;;20.70;68.50;;;;;;5054270;28;20645;-57
2022/08/30 00:37:48;;;;;;;9.70;1.88;;;20.70;68.50;;;;;;5055286;28;20198;-57
2022/08/30 00:40:15;;;;;;;3.28;1.85;;;20.60;68.70;;;;;;5054462;28;20237;-58
2022/08/30 00:42:42;;;;;;;4.25;1.35;;;20.60;69.30;;;;;;5054124;28;20205;-58
2022/08/30 00:45:17;;;;;;;1.65;1.55;;;20.60;69.60;;;;;;5053967;28;20186;-57
2022/08/30 00:47:42;;;;;;;2.17;1.73;;;20.50;69.80;;;;;;5054102;28;20184;-58
2022/08/30 00:50:09;;;;;;;2.10;1.67;;;20.60;69.90;;;;;;5054124;28;20305;-57
2022/08/30 00:52:37;;;;;;;295.20;16.50;;;20.50;69.60;;;;;;5054046;28;20177;-57
2022/08/30 00:55:03;;;;;;;51.70;3.85;;;20.50;70.30;;;;;;5054222;28;20584;-58
2022/08/30 00:57:30;;;;;;;11.38;2.15;;;20.50;70.20;;;;;;5053888;28;20177;-58
2022/08/30 00:59:57;;;;;;;6.82;2.15;;;20.50;70.50;;;;;;5053740;28;20574;-58
2022/08/30 01:02:24;;;;;;;91.03;5.80;;;20.50;70.60;;;;;;5053684;28;20224;-57
2022/08/30 01:04:50;;;;;;;21.77;2.58;;;20.40;70.50;;;;;;5053706;28;20230;-58
2022/08/30 01:07:17;;;;;;;17.70;2.70;;;20.30;70.90;;;;;;5053537;28;20173;-58
2022/08/30 01:09:43;;;;;;;29.65;3.30;;;20.30;71.80;;;;;;5053188;28;20296;-58
2022/08/30 01:12:09;;;;;;;5.65;2.17;;;20.30;72.50;;;;;;5053768;28;20243;-57
2022/08/30 01:14:35;;;;;;;12.98;2.30;;;20.20;72.80;;;;;;5053571;28;20220;-57
2022/08/30 01:17:01;;;;;;;9.00;2.15;;;20.20;73.00;;;;;;5053112;28;20192;-57
2022/08/30 01:19:37;;;;;;;3.78;1.65;;;20.10;72.80;;;;;;5053401;28;20658;-57
2022/08/30 01:22:16;;;;;;;3.25;1.58;;;20.10;72.80;;;;;;5053583;28;20212;-58
2022/08/30 01:24:42;;;;;;;4.25;1.20;;;20.10;73.20;;;;;;5053405;28;20547;-58
2022/08/30 01:27:08;;;;;;;1.40;1.20;;;20.00;73.30;;;;;;5053356;28;20177;-58
2022/08/30 01:29:34;;;;;;;4.43;1.00;;;20.00;73.30;;;;;;5053429;28;20227;-57
2022/08/30 01:32:00;;;;;;;3.30;0.80;;;19.90;73.50;;;;;;5053042;28;20212;-58
2022/08/30 01:34:25;;;;;;;0.70;0.70;;;19.90;73.90;;;;;;5053550;28;20705;-58
2022/08/30 01:36:51;;;;;;;0.60;0.60;;;19.80;74.40;;;;;;5053390;28;20718;-59
2022/08/30 01:39:17;;;;;;;0.50;0.47;;;19.80;74.50;;;;;;5053631;28;20220;-58
2022/08/30 01:41:44;;;;;;;1.80;0.73;;;19.80;74.70;;;;;;5053351;28;20173;-59
2022/08/30 01:44:11;;;;;;;0.38;0.38;;;19.70;74.90;;;;;;5052971;28;20231;-58
2022/08/30 01:46:41;;;;;;;0.20;0.20;;;19.70;74.90;;;;;;5053178;28;20189;-58
2022/08/30 01:49:10;;;;;;;0.28;0.28;;;19.70;75.40;;;;;;5053042;28;20181;-59
2022/08/30 01:51:37;;;;;;;0.63;0.38;;;19.60;75.60;;;;;;5053284;28;20698;-59
2022/08/30 01:54:03;;;;;;;0.20;0.20;;;19.60;76.10;;;;;;5053069;28;20208;-58
2022/08/30 01:56:29;;;;;;;0.10;0.10;;;19.60;76.40;;;;;;5053181;28;20640;-59
2022/08/30 01:58:55;;;;;;;0.10;0.10;;;19.60;76.40;;;;;;5052704;28;20243;-59
2022/08/30 02:01:24;;;;;;;0.22;0.15;;;19.50;77.10;;;;;;5053016;28;20216;-59
2022/08/30 02:03:51;;;;;;;0.13;0.13;;;19.50;76.80;;;;;;5052785;28;20184;-59
2022/08/30 02:06:18;;;;;;;0.00;0.00;;;19.50;77.20;;;;;;5053069;28;20170;-59
2022/08/30 02:08:45;;;;;;;0.20;0.20;;;19.40;77.10;;;;;;5052748;28;20188;-59
2022/08/30 02:11:11;;;;;;;0.00;0.00;;;19.40;77.70;;;;;;5052938;28;20181;-59
2022/08/30 02:13:39;;;;;;;0.00;0.00;;;19.30;77.70;;;;;;5052686;28;20517;-59
2022/08/30 02:16:09;;;;;;;0.00;0.00;;;19.30;78.30;;;;;;5052661;28;20197;-59
2022/08/30 02:18:35;;;;;;;0.00;0.00;;;19.30;78.20;;;;;;5052508;28;20304;-58
2022/08/30 02:21:02;;;;;;;0.00;0.00;;;19.20;78.40;;;;;;5032817;28;20178;-59
2022/08/30 02:23:27;;;;;;;0.00;0.00;;;19.10;78.60;;;;;;5032805;28;20166;-58
2022/08/30 02:25:53;;;;;;;0.00;0.00;;;19.20;79.00;;;;;;5051439;28;20204;-59
2022/08/30 02:28:19;;;;;;;0.00;0.00;;;19.10;79.20;;;;;;5052704;28;20648;-58
2022/08/30 02:30:46;;;;;;;0.00;0.00;;;19.10;79.20;;;;;;5051984;28;20197;-59
2022/08/30 02:33:12;;;;;;;0.00;0.00;;;19.10;79.60;;;;;;5052018;28;20181;-59
2022/08/30 02:35:37;;;;;;;0.00;0.00;;;19.00;79.60;;;;;;5051910;28;20533;-59
2022/08/30 02:38:03;;;;;;;0.00;0.00;;;19.00;79.70;;;;;;5051838;28;20648;-59
2022/08/30 02:40:29;;;;;;;0.00;0.00;;;19.00;79.70;;;;;;5051858;28;20656;-58
2022/08/30 02:42:55;;;;;;;0.00;0.00;;;19.00;79.70;;;;;;5051972;28;20187;-59
2022/08/30 02:45:21;;;;;;;0.00;0.00;;;19.00;79.80;;;;;;5052019;28;20269;-59
2022/08/30 02:47:47;;;;;;;0.00;0.00;;;19.00;79.50;;;;;;5051547;28;20174;-59
2022/08/30 02:50:14;;;;;;;0.20;0.20;;;19.00;79.60;;;;;;5052057;28;20330;-59
2022/08/30 02:52:40;;;;;;;0.00;0.00;;;19.10;79.90;;;;;;5051493;28;20186;-59
2022/08/30 02:55:06;;;;;;;0.00;0.00;;;19.10;80.00;;;;;;5050762;28;20503;-59
2022/08/30 02:57:32;;;;;;;0.00;0.00;;;19.20;80.10;;;;;;5050471;28;20221;-59
2022/08/30 02:59:58;;;;;;;0.00;0.00;;;19.20;80.10;;;;;;5051675;28;20607;-59
2022/08/30 03:02:24;;;;;;;0.10;0.10;;;19.20;79.80;;;;;;5051639;28;20551;-58
2022/08/30 03:04:50;;;;;;;0.00;0.00;;;19.10;79.90;;;;;;5051728;28;20185;-59
2022/08/30 03:07:16;;;;;;;0.00;0.00;;;19.10;80.20;;;;;;5052106;28;20184;-59
2022/08/30 03:09:41;;;;;;;0.00;0.00;;;19.10;80.40;;;;;;5051554;28;20184;-59
2022/08/30 03:12:08;;;;;;;0.00;0.00;;;19.00;80.60;;;;;;5051621;28;20546;-59
2022/08/30 03:14:36;;;;;;;0.00;0.00;;;19.10;81.10;;;;;;5051571;28;20243;-59
2022/08/30 03:17:03;;;;;;;0.00;0.00;;;19.10;81.20;;;;;;5050113;28;20201;-59
2022/08/30 03:19:29;;;;;;;0.00;0.00;;;19.20;80.80;;;;;;5050987;28;20216;-59
2022/08/30 03:21:54;;;;;;;0.00;0.00;;;19.20;81.00;;;;;;5051778;28;20170;-59
2022/08/30 03:24:20;;;;;;;0.00;0.00;;;19.20;80.80;;;;;;5051597;28;20185;-58
2022/08/30 03:26:45;;;;;;;0.00;0.00;;;19.20;80.40;;;;;;5051526;28;20272;-59
2022/08/30 03:29:11;;;;;;;0.00;0.00;;;19.20;80.40;;;;;;5051271;28;20192;-59
2022/08/30 03:31:37;;;;;;;0.00;0.00;;;19.20;80.90;;;;;;5051272;28;20268;-59
2022/08/30 03:34:04;;;;;;;0.00;0.00;;;19.20;80.60;;;;;;5050996;28;20213;-59
2022/08/30 03:36:30;;;;;;;0.70;0.20;;;19.30;80.70;;;;;;5051824;28;20205;-58
2022/08/30 03:38:56;;;;;;;0.00;0.00;;;19.30;80.70;;;;;;5051165;28;20199;-59
2022/08/30 03:41:23;;;;;;;0.00;0.00;;;19.30;80.20;;;;;;5050812;28;20188;-58
2022/08/30 03:43:49;;;;;;;0.00;0.00;;;19.20;80.50;;;;;;5050961;28;20182;-59
2022/08/30 03:46:15;;;;;;;0.00;0.00;;;19.20;81.10;;;;;;5050287;28;20185;-58
2022/08/30 03:48:41;;;;;;;0.00;0.00;;;19.20;81.00;;;;;;5051194;28;20227;-59
2022/08/30 03:51:07;;;;;;;0.00;0.00;;;19.20;80.80;;;;;;5051163;28;20581;-58
2022/08/30 03:53:33;;;;;;;0.00;0.00;;;19.10;80.90;;;;;;5051574;28;20208;-58
2022/08/30 03:55:58;;;;;;;0.00;0.00;;;19.10;80.90;;;;;;5050862;28;20177;-59
2022/08/30 03:58:24;;;;;;;0.00;0.00;;;19.00;81.10;;;;;;5051075;28;20205;-59
2022/08/30 04:00:50;;;;;;;0.00;0.00;;;19.00;81.20;;;;;;5050790;28;20185;-59
2022/08/30 04:03:17;;;;;;;0.00;0.00;;;18.90;81.70;;;;;;5051098;28;20279;-59
2022/08/30 04:05:44;;;;;;;0.00;0.00;;;18.80;82.80;;;;;;5049487;28;20177;-59
2022/08/30 04:08:09;;;;;;;0.00;0.00;;;18.80;83.20;;;;;;5055323;28;20231;-58
2022/08/30 04:10:35;;;;;;;0.00;0.00;;;18.90;83.10;;;;;;5054972;28;20173;-59
2022/08/30 04:13:00;;;;;;;0.00;0.00;;;18.90;82.70;;;;;;5054165;28;20182;-58
2022/08/30 04:15:26;;;;;;;0.00;0.00;;;18.90;82.40;;;;;;5054387;28;20174;-60
2022/08/30 04:17:53;;;;;;;0.00;0.00;;;18.90;83.00;;;;;;5054654;28;20230;-58
2022/08/30 04:20:19;;;;;;;0.00;0.00;;;18.90;83.10;;;;;;5053293;28;20739;-60
2022/08/30 04:22:45;;;;;;;0.00;0.00;;;18.90;82.80;;;;;;5054710;28;20205;-60
2022/08/30 04:25:10;;;;;;;0.00;0.00;;;18.90;83.20;;;;;;5053367;28;20699;-60
2022/08/30 04:27:36;;;;;;;0.10;0.10;;;18.90;83.00;;;;;;5054950;28;20253;-60
2022/08/30 04:30:03;;;;;;;0.10;0.10;;;18.80;83.20;;;;;;5054159;28;20181;-60
2022/08/30 04:32:28;;;;;;;0.30;0.30;;;18.80;84.00;;;;;;5052881;28;20181;-60
2022/08/30 04:34:58;;;;;;;0.00;0.00;;;18.80;85.60;;;;;;5054666;28;20180;-58
2022/08/30 04:37:24;;;;;;;0.00;0.00;;;18.80;84.70;;;;;;5054136;28;20178;-61
2022/08/30 04:39:49;;;;;;;0.00;0.00;;;18.90;84.40;;;;;;5053996;28;20233;-60
2022/08/30 04:42:15;;;;;;;0.00;0.00;;;18.80;83.30;;;;;;5054638;28;20637;-60
2022/08/30 04:44:40;;;;;;;0.00;0.00;;;18.80;83.90;;;;;;5054139;28;20181;-59
2022/08/30 04:47:08;;;;;;;0.00;0.00;;;18.70;84.80;;;;;;5052511;28;20205;-58
2022/08/30 04:52:55;;;;;;;0.00;0.00;;;18.60;85.80;;;;;;5054468;28;20568;-59
2022/08/30 04:55:23;;;;;;;0.00;0.00;;;18.60;85.60;;;;;;5054552;28;20174;-59
2022/08/30 04:57:49;;;;;;;0.00;0.00;;;18.70;86.00;;;;;;5054336;28;20526;-59
2022/08/30 05:00:16;;;;;;;0.00;0.00;;;18.70;86.30;;;;;;5053095;28;20216;-59
2022/08/30 05:02:42;;;;;;;0.00;0.00;;;18.80;86.20;;;;;;5054073;28;20321;-59
2022/08/30 05:07:54;;;;;;;0.00;0.00;;;18.90;86.10;;;;;;5054460;28;20203;-59
2022/08/30 05:10:20;;;;;;;0.00;0.00;;;19.00;85.70;;;;;;5054342;28;20232;-60
2022/08/30 05:12:45;;;;;;;0.00;0.00;;;19.00;86.00;;;;;;5054110;28;20530;-59
2022/08/30 05:15:12;;;;;;;0.00;0.00;;;19.10;85.90;;;;;;5054125;28;20709;-60
2022/08/30 05:17:39;;;;;;;0.00;0.00;;;19.10;85.50;;;;;;5053020;28;20692;-59
2022/08/30 05:20:06;;;;;;;0.00;0.00;;;19.20;85.60;;;;;;5053993;28;20213;-59
2022/08/30 05:22:35;;;;;;;0.00;0.00;;;19.20;85.70;;;;;;5042914;28;20190;-59
2022/08/30 05:25:00;;;;;;;0.00;0.00;;;19.30;85.60;;;;;;5033803;28;20181;-59
2022/08/30 05:27:26;;;;;;;0.00;0.00;;;19.40;85.20;;;;;;5034011;28;20194;-59
2022/08/30 05:29:51;;;;;;;0.00;0.00;;;19.60;85.00;;;;;;5033773;28;20186;-58
2022/08/30 05:32:17;;;;;;;0.00;0.00;;;19.70;84.60;;;;;;5034060;28;20178;-57
2022/08/30 05:34:43;;;;;;;0.00;0.00;;;19.80;84.20;;;;;;5033846;28;20174;-57
2022/08/30 05:37:09;;;;;;;0.00;0.00;;;19.90;83.70;;;;;;5033950;28;20201;-58
2022/08/30 05:39:34;;;;;;;0.00;0.00;;;20.00;83.30;;;;;;5033544;28;20762;-58
2022/08/30 05:42:00;;;;;;;0.00;0.00;;;20.10;83.00;;;;;;5033588;28;20642;-58
2022/08/30 05:44:25;;;;;;;0.00;0.00;;;20.00;82.90;;;;;;5033682;28;20675;-58
2022/08/30 05:46:51;;;;;;;0.10;0.10;;;20.00;82.90;;;;;;5033422;28;20513;-58
2022/08/30 05:49:17;;;;;;;0.00;0.00;;;20.10;83.10;;;;;;5033003;28;20703;-58
2022/08/30 05:51:43;;;;;;;0.00;0.00;;;20.10;83.00;;;;;;5033451;28;20626;-58
2022/08/30 05:54:09;;;;;;;0.00;0.00;;;20.30;82.50;;;;;;5030490;28;20783;-58
2022/08/30 05:56:37;;;;;;;0.00;0.00;;;20.60;82.50;;;;;;5031602;28;20261;-58
2022/08/30 05:59:05;;;;;;;0.00;0.00;;;20.90;81.80;;;;;;5028393;28;20281;-58
2022/08/30 06:01:31;;;;;;;0.00;0.00;;;21.20;80.80;;;;;;5033261;28;20229;-58
2022/08/30 06:03:59;;;;;;;0.00;0.00;;;21.50;79.60;;;;;;5047593;28;20178;-57
2022/08/30 06:06:26;;;;;;;0.00;0.00;;;21.70;78.60;;;;;;5031485;28;20265;-58
2022/08/30 06:08:52;;;;;;;0.00;0.00;;;22.00;78.80;;;;;;5032708;28;20691;-59
2022/08/30 06:11:21;;;;;;;0.00;0.00;;;22.40;77.20;;;;;;5032009;28;20185;-59
2022/08/30 06:13:47;;;;;;;0.00;0.00;;;22.60;76.50;;;;;;5031997;28;20166;-59
2022/08/30 06:16:16;;;;;;;0.00;0.00;;;22.50;75.70;;;;;;5033042;28;20178;-59
2022/08/30 06:18:42;;;;;;;0.00;0.00;;;22.70;75.90;;;;;;5032054;28;20209;-59
2022/08/30 06:21:14;;;;;;;0.00;0.00;;;22.90;75.80;;;;;;5032771;28;20261;-59
2022/08/30 06:23:39;;;;;;;0.00;0.00;;;23.30;74.70;;;;;;5031185;28;20178;-59
2022/08/30 06:26:06;;;;;;;0.00;0.00;;;23.60;73.30;;;;;;5032463;28;20224;-59
2022/08/30 06:28:32;;;;;;;0.00;0.00;;;23.90;72.80;;;;;;5032447;28;20205;-59
2022/08/30 06:30:58;;;;;;;0.00;0.00;;;24.20;72.60;;;;;;5031653;28;20185;-60
2022/08/30 06:33:24;;;;;;;0.00;0.00;;;24.70;71.40;;;;;;5032351;28;20178;-59
2022/08/30 06:35:49;;;;;;;0.00;0.00;;;25.20;70.10;;;;;;5032294;28;20252;-59
2022/08/30 06:38:15;;;;;;;0.00;0.00;;;25.50;69.30;;;;;;5032550;28;20178;-59
2022/08/30 06:40:41;;;;;;;0.00;0.00;;;25.90;67.80;;;;;;5032095;28;20193;-60
2022/08/30 06:43:06;;;;;;;0.00;0.00;;;26.20;66.00;;;;;;5032859;28;20181;-60
2022/08/30 06:45:35;;;;;;;0.38;0.38;;;26.40;65.40;;;;;;5030612;28;20207;-59
2022/08/30 06:48:01;;;;;;;0.00;0.00;;;26.50;64.20;;;;;;5031589;28;20177;-60
2022/08/30 06:50:27;;;;;;;0.00;0.00;;;26.60;63.30;;;;;;5032113;28;20178;-60
2022/08/30 06:52:52;;;;;;;0.00;0.00;;;26.90;63.10;;;;;;5030623;28;20181;-60
2022/08/30 06:55:18;;;;;;;0.00;0.00;;;27.10;62.60;;;;;;5031198;28;20536;-60
2022/08/30 06:57:45;;;;;;;0.00;0.00;;;27.30;62.00;;;;;;5031992;28;20253;-60
2022/08/30 07:00:14;;;;;;;0.00;0.00;;;27.50;61.30;;;;;;5032134;28;20564;-60
2022/08/30 07:02:40;;;;;;;0.00;0.00;;;27.70;61.00;;;;;;5032005;28;20229;-60
2022/08/30 07:05:06;;;;;;;0.00;0.00;;;27.80;60.20;;;;;;5031777;28;20791;-60
2022/08/30 07:07:32;;;;;;;0.00;0.00;;;27.80;60.30;;;;;;5031412;28;20182;-60
2022/08/30 07:10:00;;;;;;;0.00;0.00;;;28.00;60.40;;;;;;5030067;28;20652;-60
2022/08/30 07:12:25;;;;;;;0.00;0.00;;;28.20;59.50;;;;;;5031660;28;20178;-59
2022/08/30 07:14:51;;;;;;;0.00;0.00;;;28.50;59.30;;;;;;5032121;28;20174;-60
2022/08/30 07:20:02;;;;;;;0.00;0.00;;;29.10;57.70;;;;;;5031579;28;20232;-60
2022/08/30 07:22:28;;;;;;;0.00;0.00;;;29.20;57.70;;;;;;5030745;28;20174;-60
2022/08/30 07:24:54;;;;;;;0.00;0.00;;;29.30;56.70;;;;;;5031251;28;20253;-60
2022/08/30 07:27:19;;;;;;;0.00;0.00;;;29.20;56.70;;;;;;5031444;28;20217;-60
2022/08/30 07:29:47;;;;;;;0.00;0.00;;;29.30;57.80;;;;;;5030891;28;20182;-60
2022/08/30 07:32:12;;;;;;;0.00;0.00;;;29.40;56.80;;;;;;5030755;28;20190;-59
2022/08/30 07:34:38;;;;;;;0.00;0.00;;;29.30;57.00;;;;;;5030463;28;20228;-60
2022/08/30 07:37:03;;;;;;;0.00;0.00;;;29.30;57.30;;;;;;5031730;28;20225;-60
2022/08/30 07:39:29;;;;;;;0.00;0.00;;;29.30;56.90;;;;;;5031380;28;20220;-60
2022/08/30 07:41:54;;;;;;;0.00;0.00;;;29.50;57.10;;;;;;5034869;28;20201;-59
2022/08/30 07:44:20;;;;;;;0.00;0.00;;;29.80;56.90;;;;;;5035915;28;20193;-60
2022/08/30 07:46:46;;;;;;;0.00;0.00;;;30.20;56.20;;;;;;5035596;28;20174;-60
2022/08/30 07:49:11;;;;;;;0.00;0.00;;;30.40;55.70;;;;;;5035865;28;20181;-60
2022/08/30 07:51:38;;;;;;;0.00;0.00;;;30.70;55.60;;;;;;5034449;28;20547;-60
2022/08/30 07:54:04;;;;;;;0.00;0.00;;;31.00;55.10;;;;;;5034535;28;20182;-60
2022/08/30 07:56:29;;;;;;;0.00;0.00;;;31.20;54.40;;;;;;5035599;28;20181;-60
2022/08/30 07:58:55;;;;;;;0.00;0.00;;;31.40;53.60;;;;;;5034826;28;20209;-60
2022/08/30 08:01:22;;;;;;;0.20;0.20;;;31.40;53.80;;;;;;5035381;28;20218;-60
2022/08/30 08:03:49;;;;;;;0.00;0.00;;;31.50;53.60;;;;;;5035339;28;20308;-60
2022/08/30 08:06:17;;;;;;;0.00;0.00;;;31.40;53.80;;;;;;5034977;28;20791;-60
2022/08/30 08:08:44;;;;;;;0.00;0.00;;;31.60;53.20;;;;;;5035340;28;20186;-60
2022/08/30 08:11:19;;;;;;;0.00;0.00;;;31.50;53.30;;;;;;5035338;28;20207;-60
2022/08/30 08:13:46;;;;;;;0.00;0.00;;;31.60;53.20;;;;;;5035301;28;20193;-60
2022/08/30 08:16:11;;;;;;;0.00;0.00;;;31.70;53.30;;;;;;5035316;28;20178;-61
2022/08/30 08:18:37;;;;;;;0.00;0.00;;;31.90;52.50;;;;;;5035186;28;20221;-61
2022/08/30 08:21:03;;;;;;;0.03;0.03;;;32.20;52.60;;;;;;5035370;28;20170;-61
2022/08/30 08:23:28;;;;;;;0.70;0.30;;;32.40;52.40;;;;;;5050450;28;20543;-60
2022/08/30 08:25:54;;;;;;;0.00;0.00;;;32.60;52.00;;;;;;5035124;28;20184;-60
2022/08/30 08:28:20;;;;;;;0.00;0.00;;;32.70;51.40;;;;;;5035149;28;20184;-61
2022/08/30 08:30:48;;;;;;;0.00;0.00;;;32.70;51.50;;;;;;5034955;28;20189;-61
2022/08/30 08:33:14;;;;;;;0.00;0.00;;;32.60;51.80;;;;;;5035072;28;20170;-61
2022/08/30 08:35:40;;;;;;;0.00;0.00;;;32.60;51.10;;;;;;5035013;28;20178;-61
2022/08/30 08:38:06;;;;;;;0.00;0.00;;;32.30;51.00;;;;;;5034848;28;20276;-60
2022/08/30 08:40:48;;;;;;;0.00;0.00;;;32.00;51.70;;;;;;5034952;28;20281;-60
2022/08/30 08:43:18;;;;;;;0.00;0.00;;;31.80;51.80;;;;;;5034969;28;20265;-60
2022/08/30 08:46:00;;;;;;;0.00;0.00;;;31.60;53.30;;;;;;5033317;28;20222;-60
2022/08/30 08:48:50;;;;;;;0.00;0.00;;;31.60;52.70;;;;;;5034864;28;20185;-60
2022/08/30 08:54:13;;;;;;;0.00;0.00;;;31.90;52.00;;;;;;5033836;28;20205;-60
2022/08/30 08:56:39;;;;;;;0.00;0.00;;;31.90;51.00;;;;;;5034461;28;20224;-60
2022/08/30 08:59:07;;;;;;;0.00;0.00;;;31.80;51.40;;;;;;5034316;28;20214;-60
2022/08/30 09:01:33;;;;;;;0.00;0.00;;;31.70;51.50;;;;;;5034333;28;20224;-61
2022/08/30 09:04:04;;;;;;;0.20;0.20;;;31.80;51.50;;;;;;5034456;28;20580;-60
2022/08/30 09:06:41;;;;;;;0.00;0.00;;;31.80;51.50;;;;;;5034242;28;20186;-61
2022/08/30 09:09:07;;;;;;;0.00;0.00;;;31.90;51.70;;;;;;5034184;28;20178;-60
2022/08/30 09:11:35;;;;;;;0.00;0.00;;;32.10;51.20;;;;;;5034492;28;20193;-61
2022/08/30 09:14:04;;;;;;;0.00;0.00;;;32.10;51.10;;;;;;5034137;28;20185;-61
2022/08/30 09:16:47;;;;;;;0.00;0.00;;;32.20;51.20;;;;;;5034173;28;20274;-60
2022/08/30 09:19:40;;;;;;;0.00;0.00;;;32.10;51.10;;;;;;5034149;28;20240;-60
2022/08/30 09:22:12;;;;;;;0.00;0.00;;;32.00;51.70;;;;;;5034065;28;20236;-60
2022/08/30 09:24:44;;;;;;;0.00;0.00;;;31.80;51.70;;;;;;5034033;28;20192;-60
2022/08/30 09:27:25;;;;;;;0.00;0.00;;;31.80;51.90;;;;;;5033953;28;20182;-61
2022/08/30 09:30:08;;;;;;;0.00;0.00;;;31.70;51.90;;;;;;5033950;28;20178;-61
2022/08/30 09:32:38;;;;;;;0.00;0.00;;;31.50;52.40;;;;;;5034040;28;20224;-61
2022/08/30 09:35:12;;;;;;;0.00;0.00;;;31.40;52.70;;;;;;5034007;28;20178;-60
2022/08/30 09:37:51;;;;;;;0.00;0.00;;;31.30;52.80;;;;;;5033798;28;20188;-61
2022/08/30 09:40:25;;;;;;;0.00;0.00;;;31.30;53.10;;;;;;5033831;28;20239;-60
2022/08/30 09:43:02;;;;;;;0.20;0.20;;;31.40;53.20;;;;;;5033703;28;20182;-61
2022/08/30 09:45:35;;;;;;;0.00;0.00;;;31.40;53.40;;;;;;5033760;28;20810;-60
2022/08/30 09:48:27;;;;;;;0.00;0.00;;;31.50;54.00;;;;;;5033678;28;20210;-60
2022/08/30 09:51:11;;;;;;;0.00;0.00;;;31.80;53.70;;;;;;5033599;28;20204;-61
2022/08/30 09:53:46;;;;;;;0.00;0.00;;;32.20;53.00;;;;;;5033419;28;20194;-61
2022/08/30 09:56:49;;;;;;;0.00;0.00;;;32.30;51.90;;;;;;5033531;28;20178;-61
2022/08/30 09:59:25;;;;;;;0.00;0.00;;;32.20;52.00;;;;;;5033516;28;20684;-60
2022/08/30 10:02:20;;;;;;;0.00;0.00;;;32.10;51.90;;;;;;5033239;28;20256;-60
2022/08/30 10:05:21;;;;;;;0.00;0.00;;;32.10;52.30;;;;;;5023374;28;20254;-60
2022/08/30 10:08:16;;;;;;;0.00;0.00;;;32.10;51.90;;;;;;5031526;28;20194;-61
2022/08/30 10:11:06;;;;;;;0.00;0.00;;;32.20;52.50;;;;;;5030994;28;20308;-61
2022/08/30 10:14:13;;;;;;;0.00;0.00;;;32.20;52.00;;;;;;5033239;28;20217;-60
2022/08/30 10:16:57;;;;;;;0.00;0.00;;;32.40;52.00;;;;;;5022651;28;20247;-61
2022/08/30 10:19:41;;;;;;;0.00;0.00;;;32.60;51.70;;;;;;5033141;28;20225;-60
2022/08/30 10:22:29;;;;;;;0.00;0.00;;;32.50;51.80;;;;;;5032946;28;20169;-61
2022/08/30 10:25:08;;;;;;;0.00;0.00;;;32.60;51.90;;;;;;5029798;28;20748;-60
2022/08/30 10:27:50;;;;;;;0.20;0.20;;;32.70;51.50;;;;;;5032843;28;20178;-60
2022/08/30 10:30:17;;;;;;;0.00;0.00;;;32.40;51.40;;;;;;5032854;28;20174;-60
2022/08/30 10:33:03;;;;;;;0.00;0.00;;;32.40;51.90;;;;;;5032758;28;20634;-61
2022/08/30 10:35:34;;;;;;;0.00;0.00;;;32.50;52.70;;;;;;5032593;28;20186;-60
2022/08/30 10:38:04;;;;;;;0.00;0.00;;;32.60;52.10;;;;;;5032623;28;20581;-61
2022/08/30 10:43:42;;;;;;;0.00;0.00;;;32.60;51.60;;;;;;5032633;28;20251;-60
2022/08/30 10:46:15;;;;;;;0.00;0.00;;;32.60;51.90;;;;;;5032521;28;20233;-60
2022/08/30 10:48:43;;;;;;;0.00;0.00;;;32.50;51.90;;;;;;5032460;28;20201;-60
2022/08/30 10:51:17;;;;;;;0.00;0.00;;;32.40;51.30;;;;;;5032490;28;20177;-60
2022/08/30 10:53:49;;;;;;;0.00;0.00;;;32.40;52.10;;;;;;5032349;28;20261;-61
2022/08/30 10:56:23;;;;;;;0.00;0.00;;;32.60;52.10;;;;;;5032555;28;20181;-61
2022/08/30 10:58:51;;;;;;;0.00;0.00;;;32.50;51.20;;;;;;5032130;28;20244;-61
2022/08/30 11:01:41;;;;;;;0.00;0.00;;;32.60;51.80;;;;;;5032188;28;20208;-61
2022/08/30 11:04:28;;;;;;;0.00;0.00;;;32.80;51.50;;;;;;5032236;28;20182;-61
2022/08/30 11:07:11;;;;;;;0.17;0.17;;;33.10;51.00;;;;;;5032153;28;20174;-61
2022/08/30 11:09:55;;;;;;;0.00;0.00;;;33.20;51.80;;;;;;5032202;28;20178;-61
2022/08/30 11:12:36;;;;;;;0.00;0.00;;;33.10;50.10;;;;;;5032254;28;20576;-60
2022/08/30 11:15:20;;;;;;;0.00;0.00;;;32.90;50.80;;;;;;5031761;28;20236;-60
2022/08/30 11:17:58;;;;;;;0.00;0.00;;;32.70;50.70;;;;;;5031834;28;20389;-60
2022/08/30 11:20:49;;;;;;;0.00;0.00;;;32.60;51.40;;;;;;5032184;28;20221;-60
2022/08/30 11:23:17;;;;;;;0.00;0.00;;;32.50;51.30;;;;;;5032124;28;20188;-60
2022/08/30 11:25:58;;;;;;;0.00;0.00;;;32.50;51.10;;;;;;5031917;28;20277;-61
2022/08/30 11:28:35;;;;;;;0.00;0.00;;;32.60;51.20;;;;;;5032127;28;20239;-61
2022/08/30 11:31:04;;;;;;;0.00;0.00;;;32.70;50.80;;;;;;5031919;28;20174;-61
2022/08/30 11:33:39;;;;;;;0.00;0.00;;;32.80;50.30;;;;;;5031903;28;20529;-60
2022/08/30 11:36:05;;;;;;;0.00;0.00;;;32.90;50.10;;;;;;5032094;28;20185;-60
2022/08/30 11:38:30;;;;;;;0.00;0.00;;;33.10;49.90;;;;;;5031825;28;20202;-60
2022/08/30 11:40:59;;;;;;;0.00;0.00;;;33.20;49.40;;;;;;5031776;28;20196;-60
2022/08/30 11:43:33;;;;;;;0.00;0.00;;;33.20;48.90;;;;;;5031928;28;20186;-61
2022/08/30 11:46:18;;;;;;;0.00;0.00;;;33.20;48.20;;;;;;5031769;28;20185;-61
2022/08/30 11:48:50;;;;;;;0.00;0.00;;;33.50;48.90;;;;;;5031829;28;20193;-61
2022/08/30 11:51:38;;;;;;;0.00;0.00;;;33.60;48.60;;;;;;5031900;28;20255;-61
2022/08/30 11:54:46;;;;;;;0.00;0.00;;;33.70;49.20;;;;;;5031606;28;20275;-61
2022/08/30 11:57:30;;;;;;;0.00;0.00;;;33.90;48.80;;;;;;5031838;28;20165;-61
2022/08/30 12:00:10;;;;;;;0.00;0.00;;;34.00;48.00;;;;;;5031701;28;20586;-61
2022/08/30 12:02:43;;;;;;;0.00;0.00;;;34.00;48.10;;;;;;5031544;28;20280;-61
2022/08/30 12:05:34;;;;;;;0.00;0.00;;;33.90;48.20;;;;;;5031563;28;20196;-61
2022/08/30 12:08:01;;;;;;;0.00;0.00;;;33.70;48.50;;;;;;5031545;28;20261;-61
2022/08/30 12:10:43;;;;;;;0.00;0.00;;;33.40;49.10;;;;;;5031533;28;20182;-60
2022/08/30 12:13:30;;;;;;;0.00;0.00;;;33.10;49.20;;;;;;5031581;28;20178;-60
2022/08/30 12:16:01;;;;;;;0.00;0.00;;;32.70;49.30;;;;;;5031419;28;20185;-61
2022/08/30 12:18:40;;;;;;;0.00;0.00;;;32.10;50.10;;;;;;5031390;28;20209;-61
2022/08/30 12:21:20;;;;;;;0.00;0.00;;;31.70;50.80;;;;;;5031488;28;20621;-61
2022/08/30 12:24:14;;;;;;;0.60;0.32;;;31.20;51.10;;;;;;5031307;28;20178;-61
2022/08/30 12:26:42;;;;;;;0.15;0.15;;;30.90;51.50;;;;;;5031775;28;20174;-60
2022/08/30 12:29:29;;;;;;;0.00;0.00;;;30.80;52.10;;;;;;5035030;28;20186;-60
2022/08/30 12:32:06;;;;;;;0.00;0.00;;;30.70;52.70;;;;;;5035173;28;20205;-60
2022/08/30 12:34:42;;;;;;;0.00;0.00;;;30.70;52.10;;;;;;5035165;28;20181;-61
2022/08/30 12:37:26;;;;;;;0.00;0.00;;;30.60;52.30;;;;;;5034973;28;20174;-60
2022/08/30 12:40:07;;;;;;;0.00;0.00;;;30.70;51.90;;;;;;5034736;28;20225;-61
2022/08/30 12:42:36;;;;;;;0.00;0.00;;;30.80;52.40;;;;;;5034912;28;20177;-61
2022/08/30 12:45:13;;;;;;;0.00;0.00;;;31.00;52.20;;;;;;5034758;28;20192;-61
2022/08/30 12:47:53;;;;;;;0.00;0.00;;;31.20;52.00;;;;;;5034780;28;20538;-61
2022/08/30 12:50:23;;;;;;;0.00;0.00;;;31.40;51.20;;;;;;5034778;28;20212;-61
2022/08/30 12:53:20;;;;;;;0.00;0.00;;;31.60;50.80;;;;;;5034652;28;20308;-61
2022/08/30 12:56:14;;;;;;;0.00;0.00;;;31.80;50.00;;;;;;5034024;28;20194;-61
2022/08/30 12:58:46;;;;;;;0.00;0.00;;;32.00;49.50;;;;;;5034496;28;20296;-61
2022/08/30 13:01:23;;;;;;;0.00;0.00;;;32.30;49.50;;;;;;5034425;28;20817;-61
2022/08/30 13:04:12;;;;;;;0.00;0.00;;;32.50;49.00;;;;;;5034351;28;20200;-61
2022/08/30 13:06:58;;;;;;;0.00;0.00;;;32.50;49.20;;;;;;5034358;28;20532;-61
2022/08/30 13:09:33;;;;;;;0.43;0.43;;;32.50;49.00;;;;;;5034387;28;20174;-61
2022/08/30 13:12:02;;;;;;;0.00;0.00;;;32.60;48.80;;;;;;5034295;28;20197;-61
2022/08/30 13:14:37;;;;;;;0.00;0.00;;;32.60;48.60;;;;;;5034064;28;20178;-61
2022/08/30 13:17:25;;;;;;;0.00;0.00;;;32.80;48.70;;;;;;5034214;28;20178;-61